sensor_id;sensor_type;location;lat;lon;timestamp;temperature;humidity
17208;DHT22;8720;48.488;9.202;2023-04-24T00:00:32;14.80;49.00
17208;DHT22;8720;48.488;9.202;2023-04-24T00:03:00;14.80;49.00
17208;DHT22;8720;48.488;9.202;2023-04-24T00:05:27;14.80;49.70
17208;DHT22;8720;48.488;9.202;2023-04-24T00:07:55;14.80;49.00
17208;DHT22;8720;48.488;9.202;2023-04-24T00:10:22;14.80;49.10
17208;DHT22;8720;48.488;9.202;2023-04-24T00:12:51;14.80;49.20
17208;DHT22;8720;48.488;9.202;2023-04-24T00:15:18;14.80;49.00
17208;DHT22;8720;48.488;9.202;2023-04-24T00:17:45;14.70;49.00
17208;DHT22;8720;48.488;9.202;2023-04-24T00:20:13;14.70;48.90
17208;DHT22;8720;48.488;9.202;2023-04-24T00:22:40;14.70;49.00
17208;DHT22;8720;48.488;9.202;2023-04-24T00:25:08;14.70;49.00
17208;DHT22;8720;48.488;9.202;2023-04-24T00:27:35;14.70;48.90
17208;DHT22;8720;48.488;9.202;2023-04-24T00:30:07;14.70;49.10
17208;DHT22;8720;48.488;9.202;2023-04-24T00:32:34;14.80;49.10
17208;DHT22;8720;48.488;9.202;2023-04-24T00:35:02;14.80;49.20
17208;DHT22;8720;48.488;9.202;2023-04-24T00:37:30;14.80;49.10
17208;DHT22;8720;48.488;9.202;2023-04-24T00:39:57;14.80;49.20
17208;DHT22;8720;48.488;9.202;2023-04-24T00:42:24;14.80;49.10
17208;DHT22;8720;48.488;9.202;2023-04-24T00:44:52;14.80;49.10
17208;DHT22;8720;48.488;9.202;2023-04-24T00:47:21;14.80;49.10
17208;DHT22;8720;48.488;9.202;2023-04-24T00:49:49;14.80;49.10
17208;DHT22;8720;48.488;9.202;2023-04-24T00:52:18;14.90;49.20
17208;DHT22;8720;48.488;9.202;2023-04-24T00:54:46;14.90;49.10
17208;DHT22;8720;48.488;9.202;2023-04-24T00:57:14;14.90;49.20
17208;DHT22;8720;48.488;9.202;2023-04-24T00:59:41;14.90;49.10
17208;DHT22;8720;48.488;9.202;2023-04-24T01:02:10;14.90;49.10
17208;DHT22;8720;48.488;9.202;2023-04-24T01:04:40;14.90;49.10
17208;DHT22;8720;48.488;9.202;2023-04-24T01:07:07;14.90;49.10
17208;DHT22;8720;48.488;9.202;2023-04-24T01:09:37;14.90;49.20
17208;DHT22;8720;48.488;9.202;2023-04-24T01:12:07;14.90;49.30
17208;DHT22;8720;48.488;9.202;2023-04-24T01:14:37;14.90;49.50
17208;DHT22;8720;48.488;9.202;2023-04-24T01:17:04;14.90;49.70
17208;DHT22;8720;48.488;9.202;2023-04-24T01:19:33;14.90;50.60
17208;DHT22;8720;48.488;9.202;2023-04-24T01:22:02;14.90;50.30
17208;DHT22;8720;48.488;9.202;2023-04-24T01:24:32;14.90;50.50
17208;DHT22;8720;48.488;9.202;2023-04-24T01:26:59;14.90;50.70
17208;DHT22;8720;48.488;9.202;2023-04-24T01:29:26;14.80;51.00
17208;DHT22;8720;48.488;9.202;2023-04-24T01:31:55;14.80;51.50
17208;DHT22;8720;48.488;9.202;2023-04-24T01:34:24;14.80;51.80
17208;DHT22;8720;48.488;9.202;2023-04-24T01:36:51;14.70;51.80
17208;DHT22;8720;48.488;9.202;2023-04-24T01:39:19;14.70;52.10
17208;DHT22;8720;48.488;9.202;2023-04-24T01:41:50;14.60;52.30
17208;DHT22;8720;48.488;9.202;2023-04-24T01:44:18;14.60;52.70
17208;DHT22;8720;48.488;9.202;2023-04-24T01:46:46;14.50;52.50
17208;DHT22;8720;48.488;9.202;2023-04-24T01:49:13;14.50;52.80
17208;DHT22;8720;48.488;9.202;2023-04-24T01:51:41;14.40;52.80
17208;DHT22;8720;48.488;9.202;2023-04-24T01:54:08;14.40;52.90
17208;DHT22;8720;48.488;9.202;2023-04-24T01:56:36;14.30;52.90
17208;DHT22;8720;48.488;9.202;2023-04-24T01:59:09;14.20;52.90
17208;DHT22;8720;48.488;9.202;2023-04-24T02:04:12;14.10;53.30
17208;DHT22;8720;48.488;9.202;2023-04-24T02:06:40;14.10;53.20
17208;DHT22;8720;48.488;9.202;2023-04-24T02:09:07;14.10;53.50
17208;DHT22;8720;48.488;9.202;2023-04-24T02:11:36;14.00;53.70
17208;DHT22;8720;48.488;9.202;2023-04-24T02:16:43;14.00;55.00
17208;DHT22;8720;48.488;9.202;2023-04-24T02:19:10;14.00;54.80
17208;DHT22;8720;48.488;9.202;2023-04-24T02:21:38;14.00;54.60
17208;DHT22;8720;48.488;9.202;2023-04-24T02:24:08;13.90;55.40
17208;DHT22;8720;48.488;9.202;2023-04-24T02:26:35;13.90;55.10
17208;DHT22;8720;48.488;9.202;2023-04-24T02:29:03;13.90;55.30
17208;DHT22;8720;48.488;9.202;2023-04-24T02:31:30;13.90;55.40
17208;DHT22;8720;48.488;9.202;2023-04-24T02:33:58;13.90;55.50
17208;DHT22;8720;48.488;9.202;2023-04-24T02:36:26;13.80;55.50
17208;DHT22;8720;48.488;9.202;2023-04-24T02:38:53;13.80;55.60
17208;DHT22;8720;48.488;9.202;2023-04-24T02:41:20;13.70;55.80
17208;DHT22;8720;48.488;9.202;2023-04-24T02:43:48;13.70;56.20
17208;DHT22;8720;48.488;9.202;2023-04-24T02:46:15;13.70;56.60
17208;DHT22;8720;48.488;9.202;2023-04-24T02:48:44;13.70;56.80
17208;DHT22;8720;48.488;9.202;2023-04-24T02:51:13;13.60;56.70
17208;DHT22;8720;48.488;9.202;2023-04-24T02:53:40;13.60;57.00
17208;DHT22;8720;48.488;9.202;2023-04-24T02:56:07;13.60;57.00
17208;DHT22;8720;48.488;9.202;2023-04-24T02:58:37;13.60;57.30
17208;DHT22;8720;48.488;9.202;2023-04-24T03:01:05;13.60;57.40
17208;DHT22;8720;48.488;9.202;2023-04-24T03:03:32;13.60;57.30
17208;DHT22;8720;48.488;9.202;2023-04-24T03:06:00;13.60;57.20
17208;DHT22;8720;48.488;9.202;2023-04-24T03:08:28;13.50;57.20
17208;DHT22;8720;48.488;9.202;2023-04-24T03:10:56;13.50;57.40
17208;DHT22;8720;48.488;9.202;2023-04-24T03:13:23;13.50;57.30
17208;DHT22;8720;48.488;9.202;2023-04-24T03:15:50;13.50;57.50
17208;DHT22;8720;48.488;9.202;2023-04-24T03:18:18;13.50;57.60
17208;DHT22;8720;48.488;9.202;2023-04-24T03:20:47;13.50;57.80
17208;DHT22;8720;48.488;9.202;2023-04-24T03:23:14;13.50;57.90
17208;DHT22;8720;48.488;9.202;2023-04-24T03:25:43;13.50;58.20
17208;DHT22;8720;48.488;9.202;2023-04-24T03:28:12;13.50;58.60
17208;DHT22;8720;48.488;9.202;2023-04-24T03:30:46;13.50;58.50
17208;DHT22;8720;48.488;9.202;2023-04-24T03:33:14;13.50;58.70
17208;DHT22;8720;48.488;9.202;2023-04-24T03:35:52;13.40;58.80
17208;DHT22;8720;48.488;9.202;2023-04-24T03:38:20;13.40;59.50
17208;DHT22;8720;48.488;9.202;2023-04-24T03:40:51;13.40;59.00
17208;DHT22;8720;48.488;9.202;2023-04-24T03:43:37;13.40;59.30
17208;DHT22;8720;48.488;9.202;2023-04-24T03:46:06;13.30;59.00
17208;DHT22;8720;48.488;9.202;2023-04-24T03:48:39;13.30;59.00
17208;DHT22;8720;48.488;9.202;2023-04-24T03:51:08;13.20;58.90
17208;DHT22;8720;48.488;9.202;2023-04-24T03:53:37;13.20;58.90
17208;DHT22;8720;48.488;9.202;2023-04-24T03:56:07;13.20;59.00
17208;DHT22;8720;48.488;9.202;2023-04-24T03:58:34;13.10;59.00
17208;DHT22;8720;48.488;9.202;2023-04-24T04:01:02;13.10;59.00
17208;DHT22;8720;48.488;9.202;2023-04-24T04:03:59;13.10;59.20
17208;DHT22;8720;48.488;9.202;2023-04-24T04:06:27;13.00;59.30
17208;DHT22;8720;48.488;9.202;2023-04-24T04:08:57;13.00;59.40
17208;DHT22;8720;48.488;9.202;2023-04-24T04:11:26;13.10;59.50
17208;DHT22;8720;48.488;9.202;2023-04-24T04:13:53;13.00;59.80
17208;DHT22;8720;48.488;9.202;2023-04-24T04:16:21;13.00;59.80
17208;DHT22;8720;48.488;9.202;2023-04-24T04:18:53;13.00;60.00
17208;DHT22;8720;48.488;9.202;2023-04-24T04:21:21;13.00;60.10
17208;DHT22;8720;48.488;9.202;2023-04-24T04:23:52;13.00;60.30
17208;DHT22;8720;48.488;9.202;2023-04-24T04:26:27;12.90;60.30
17208;DHT22;8720;48.488;9.202;2023-04-24T04:29:04;12.90;60.60
17208;DHT22;8720;48.488;9.202;2023-04-24T04:31:36;12.90;60.50
17208;DHT22;8720;48.488;9.202;2023-04-24T04:34:08;12.90;60.40
17208;DHT22;8720;48.488;9.202;2023-04-24T04:36:37;13.00;60.60
17208;DHT22;8720;48.488;9.202;2023-04-24T04:39:32;12.90;60.80
17208;DHT22;8720;48.488;9.202;2023-04-24T04:42:03;12.90;60.90
17208;DHT22;8720;48.488;9.202;2023-04-24T04:44:38;13.00;61.20
17208;DHT22;8720;48.488;9.202;2023-04-24T04:47:07;13.00;61.40
17208;DHT22;8720;48.488;9.202;2023-04-24T04:49:37;13.00;61.50
17208;DHT22;8720;48.488;9.202;2023-04-24T04:52:07;13.00;61.60
17208;DHT22;8720;48.488;9.202;2023-04-24T04:54:35;13.00;61.50
17208;DHT22;8720;48.488;9.202;2023-04-24T04:57:04;13.00;61.60
17208;DHT22;8720;48.488;9.202;2023-04-24T04:59:32;13.00;61.90
17208;DHT22;8720;48.488;9.202;2023-04-24T05:02:04;13.00;62.00
17208;DHT22;8720;48.488;9.202;2023-04-24T05:04:32;12.90;62.10
17208;DHT22;8720;48.488;9.202;2023-04-24T05:06:59;12.90;62.20
17208;DHT22;8720;48.488;9.202;2023-04-24T05:09:31;12.80;62.40
17208;DHT22;8720;48.488;9.202;2023-04-24T05:12:06;12.70;62.60
17208;DHT22;8720;48.488;9.202;2023-04-24T05:14:40;12.60;63.00
17208;DHT22;8720;48.488;9.202;2023-04-24T05:17:08;12.60;63.00
17208;DHT22;8720;48.488;9.202;2023-04-24T05:19:36;12.50;63.00
17208;DHT22;8720;48.488;9.202;2023-04-24T05:22:04;12.50;63.00
17208;DHT22;8720;48.488;9.202;2023-04-24T05:24:35;12.40;63.00
17208;DHT22;8720;48.488;9.202;2023-04-24T05:27:27;12.40;63.10
17208;DHT22;8720;48.488;9.202;2023-04-24T05:29:54;12.30;63.20
17208;DHT22;8720;48.488;9.202;2023-04-24T05:32:22;12.30;63.20
17208;DHT22;8720;48.488;9.202;2023-04-24T05:34:49;12.30;63.20
17208;DHT22;8720;48.488;9.202;2023-04-24T05:37:17;12.20;63.10
17208;DHT22;8720;48.488;9.202;2023-04-24T05:39:44;12.20;63.30
17208;DHT22;8720;48.488;9.202;2023-04-24T05:42:11;12.20;63.50
17208;DHT22;8720;48.488;9.202;2023-04-24T05:44:40;12.10;63.50
17208;DHT22;8720;48.488;9.202;2023-04-24T05:47:07;12.10;63.20
17208;DHT22;8720;48.488;9.202;2023-04-24T05:49:34;12.10;63.70
17208;DHT22;8720;48.488;9.202;2023-04-24T05:52:02;12.00;63.30
17208;DHT22;8720;48.488;9.202;2023-04-24T05:54:31;12.00;63.50
17208;DHT22;8720;48.488;9.202;2023-04-24T05:56:58;12.00;63.90
17208;DHT22;8720;48.488;9.202;2023-04-24T05:59:46;11.90;64.00
17208;DHT22;8720;48.488;9.202;2023-04-24T06:02:14;11.90;64.10
17208;DHT22;8720;48.488;9.202;2023-04-24T06:04:44;11.90;64.30
17208;DHT22;8720;48.488;9.202;2023-04-24T06:07:12;12.00;65.00
17208;DHT22;8720;48.488;9.202;2023-04-24T06:09:42;12.00;65.20
17208;DHT22;8720;48.488;9.202;2023-04-24T06:12:09;12.10;65.40
17208;DHT22;8720;48.488;9.202;2023-04-24T06:14:52;12.10;65.50
17208;DHT22;8720;48.488;9.202;2023-04-24T06:17:26;12.20;65.50
17208;DHT22;8720;48.488;9.202;2023-04-24T06:19:54;12.30;66.70
17208;DHT22;8720;48.488;9.202;2023-04-24T06:22:23;12.40;68.40
17208;DHT22;8720;48.488;9.202;2023-04-24T06:24:51;12.70;69.40
17208;DHT22;8720;48.488;9.202;2023-04-24T06:27:18;13.00;69.20
17208;DHT22;8720;48.488;9.202;2023-04-24T06:29:45;13.30;68.40
17208;DHT22;8720;48.488;9.202;2023-04-24T06:32:20;13.60;67.20
17208;DHT22;8720;48.488;9.202;2023-04-24T06:34:48;13.80;65.70
17208;DHT22;8720;48.488;9.202;2023-04-24T06:37:15;14.00;65.90
17208;DHT22;8720;48.488;9.202;2023-04-24T06:39:43;14.20;66.80
17208;DHT22;8720;48.488;9.202;2023-04-24T06:42:10;14.50;68.30
17208;DHT22;8720;48.488;9.202;2023-04-24T06:44:37;14.80;69.80
17208;DHT22;8720;48.488;9.202;2023-04-24T06:47:06;15.30;71.00
17208;DHT22;8720;48.488;9.202;2023-04-24T06:49:36;15.90;69.60
17208;DHT22;8720;48.488;9.202;2023-04-24T06:52:04;16.40;66.90
17208;DHT22;8720;48.488;9.202;2023-04-24T06:54:32;16.90;66.90
17208;DHT22;8720;48.488;9.202;2023-04-24T06:57:00;17.40;66.70
17208;DHT22;8720;48.488;9.202;2023-04-24T06:59:28;17.80;64.80
17208;DHT22;8720;48.488;9.202;2023-04-24T07:01:57;18.20;61.90
17208;DHT22;8720;48.488;9.202;2023-04-24T07:04:24;18.50;60.00
17208;DHT22;8720;48.488;9.202;2023-04-24T07:06:53;18.70;59.40
17208;DHT22;8720;48.488;9.202;2023-04-24T07:09:21;18.80;58.50
17208;DHT22;8720;48.488;9.202;2023-04-24T07:11:49;19.00;60.10
17208;DHT22;8720;48.488;9.202;2023-04-24T07:14:17;19.20;59.00
17208;DHT22;8720;48.488;9.202;2023-04-24T07:16:44;19.40;58.00
17208;DHT22;8720;48.488;9.202;2023-04-24T07:19:12;19.50;57.20
17208;DHT22;8720;48.488;9.202;2023-04-24T07:21:39;19.60;55.60
17208;DHT22;8720;48.488;9.202;2023-04-24T07:24:08;19.50;55.60
17208;DHT22;8720;48.488;9.202;2023-04-24T07:26:37;19.50;54.20
17208;DHT22;8720;48.488;9.202;2023-04-24T07:29:05;19.50;51.40
17208;DHT22;8720;48.488;9.202;2023-04-24T07:31:33;19.30;48.80
17208;DHT22;8720;48.488;9.202;2023-04-24T07:34:01;19.00;50.70
17208;DHT22;8720;48.488;9.202;2023-04-24T07:36:28;18.80;50.70
17208;DHT22;8720;48.488;9.202;2023-04-24T07:38:57;18.60;51.20
17208;DHT22;8720;48.488;9.202;2023-04-24T07:41:26;18.40;51.00
17208;DHT22;8720;48.488;9.202;2023-04-24T07:43:54;18.00;50.70
17208;DHT22;8720;48.488;9.202;2023-04-24T07:46:21;17.70;51.40
17208;DHT22;8720;48.488;9.202;2023-04-24T07:48:49;17.40;52.10
17208;DHT22;8720;48.488;9.202;2023-04-24T07:51:16;17.10;52.90
17208;DHT22;8720;48.488;9.202;2023-04-24T07:53:44;16.90;53.50
17208;DHT22;8720;48.488;9.202;2023-04-24T07:56:11;16.80;53.70
17208;DHT22;8720;48.488;9.202;2023-04-24T07:58:40;16.60;53.40
17208;DHT22;8720;48.488;9.202;2023-04-24T08:01:07;16.40;52.80
17208;DHT22;8720;48.488;9.202;2023-04-24T08:03:34;16.30;53.20
17208;DHT22;8720;48.488;9.202;2023-04-24T08:06:02;16.10;53.00
17208;DHT22;8720;48.488;9.202;2023-04-24T08:08:29;16.00;53.50
17208;DHT22;8720;48.488;9.202;2023-04-24T08:10:58;15.90;53.30
17208;DHT22;8720;48.488;9.202;2023-04-24T08:13:25;15.80;53.10
17208;DHT22;8720;48.488;9.202;2023-04-24T08:15:54;15.70;53.40
17208;DHT22;8720;48.488;9.202;2023-04-24T08:18:22;15.70;53.40
17208;DHT22;8720;48.488;9.202;2023-04-24T08:20:50;15.60;53.50
17208;DHT22;8720;48.488;9.202;2023-04-24T08:23:18;15.60;54.20
17208;DHT22;8720;48.488;9.202;2023-04-24T08:25:45;15.70;54.50
17208;DHT22;8720;48.488;9.202;2023-04-24T08:28:12;15.80;54.30
17208;DHT22;8720;48.488;9.202;2023-04-24T08:30:45;15.90;53.70
17208;DHT22;8720;48.488;9.202;2023-04-24T08:33:15;16.00;52.30
17208;DHT22;8720;48.488;9.202;2023-04-24T08:35:42;16.10;51.80
17208;DHT22;8720;48.488;9.202;2023-04-24T08:38:09;16.00;50.90
17208;DHT22;8720;48.488;9.202;2023-04-24T08:40:37;16.00;50.70
17208;DHT22;8720;48.488;9.202;2023-04-24T08:43:05;15.90;50.30
17208;DHT22;8720;48.488;9.202;2023-04-24T08:45:33;15.80;50.10
17208;DHT22;8720;48.488;9.202;2023-04-24T08:48:01;15.70;50.30
17208;DHT22;8720;48.488;9.202;2023-04-24T08:50:34;15.60;50.20
17208;DHT22;8720;48.488;9.202;2023-04-24T08:53:02;15.50;49.10
17208;DHT22;8720;48.488;9.202;2023-04-24T08:55:30;15.40;49.20
17208;DHT22;8720;48.488;9.202;2023-04-24T08:58:01;15.40;49.80
17208;DHT22;8720;48.488;9.202;2023-04-24T09:00:29;15.30;49.10
17208;DHT22;8720;48.488;9.202;2023-04-24T09:03:00;15.20;49.60
17208;DHT22;8720;48.488;9.202;2023-04-24T09:05:29;15.10;49.20
17208;DHT22;8720;48.488;9.202;2023-04-24T09:07:59;15.10;49.30
17208;DHT22;8720;48.488;9.202;2023-04-24T09:10:29;15.00;48.80
17208;DHT22;8720;48.488;9.202;2023-04-24T09:12:57;15.00;49.00
17208;DHT22;8720;48.488;9.202;2023-04-24T09:15:27;15.00;49.60
17208;DHT22;8720;48.488;9.202;2023-04-24T09:17:56;15.00;49.70
17208;DHT22;8720;48.488;9.202;2023-04-24T09:20:23;15.00;49.50
17208;DHT22;8720;48.488;9.202;2023-04-24T09:22:53;15.00;49.70
17208;DHT22;8720;48.488;9.202;2023-04-24T09:25:26;15.10;48.90
17208;DHT22;8720;48.488;9.202;2023-04-24T09:28:01;15.20;48.60
17208;DHT22;8720;48.488;9.202;2023-04-24T09:30:31;15.20;48.80
17208;DHT22;8720;48.488;9.202;2023-04-24T09:33:12;15.30;49.70
17208;DHT22;8720;48.488;9.202;2023-04-24T09:35:41;15.30;47.40
17208;DHT22;8720;48.488;9.202;2023-04-24T09:38:09;15.40;49.50
17208;DHT22;8720;48.488;9.202;2023-04-24T09:40:39;15.40;48.80
17208;DHT22;8720;48.488;9.202;2023-04-24T09:43:10;15.40;48.40
17208;DHT22;8720;48.488;9.202;2023-04-24T09:45:39;15.50;47.60
17208;DHT22;8720;48.488;9.202;2023-04-24T09:48:09;15.50;48.50
17208;DHT22;8720;48.488;9.202;2023-04-24T09:50:37;15.50;47.90
17208;DHT22;8720;48.488;9.202;2023-04-24T09:53:05;15.50;48.50
17208;DHT22;8720;48.488;9.202;2023-04-24T09:55:42;15.50;48.20
17208;DHT22;8720;48.488;9.202;2023-04-24T09:58:14;15.50;47.90
17208;DHT22;8720;48.488;9.202;2023-04-24T10:00:41;15.60;49.20
17208;DHT22;8720;48.488;9.202;2023-04-24T10:03:08;15.70;49.00
17208;DHT22;8720;48.488;9.202;2023-04-24T10:05:37;15.70;48.70
17208;DHT22;8720;48.488;9.202;2023-04-24T10:08:11;15.80;48.20
17208;DHT22;8720;48.488;9.202;2023-04-24T10:10:41;16.00;48.20
17208;DHT22;8720;48.488;9.202;2023-04-24T10:13:11;16.10;48.90
17208;DHT22;8720;48.488;9.202;2023-04-24T10:15:41;16.30;48.20
17208;DHT22;8720;48.488;9.202;2023-04-24T10:18:09;16.40;48.90
17208;DHT22;8720;48.488;9.202;2023-04-24T10:20:39;16.50;48.50
17208;DHT22;8720;48.488;9.202;2023-04-24T10:23:07;16.60;48.00
17208;DHT22;8720;48.488;9.202;2023-04-24T10:25:35;16.70;48.10
17208;DHT22;8720;48.488;9.202;2023-04-24T10:28:05;16.70;47.20
17208;DHT22;8720;48.488;9.202;2023-04-24T10:30:34;16.80;46.30
17208;DHT22;8720;48.488;9.202;2023-04-24T10:33:02;16.80;46.30
17208;DHT22;8720;48.488;9.202;2023-04-24T10:35:31;16.80;45.60
17208;DHT22;8720;48.488;9.202;2023-04-24T10:38:03;16.80;45.60
17208;DHT22;8720;48.488;9.202;2023-04-24T10:40:35;16.70;44.40
17208;DHT22;8720;48.488;9.202;2023-04-24T10:43:06;16.70;45.00
17208;DHT22;8720;48.488;9.202;2023-04-24T10:45:37;16.70;44.50
17208;DHT22;8720;48.488;9.202;2023-04-24T10:48:06;16.80;44.70
17208;DHT22;8720;48.488;9.202;2023-04-24T10:50:44;16.80;44.50
17208;DHT22;8720;48.488;9.202;2023-04-24T10:53:13;16.80;41.90
17208;DHT22;8720;48.488;9.202;2023-04-24T10:55:44;16.90;42.90
17208;DHT22;8720;48.488;9.202;2023-04-24T10:58:15;16.80;41.90
17208;DHT22;8720;48.488;9.202;2023-04-24T11:00:48;16.70;42.70
17208;DHT22;8720;48.488;9.202;2023-04-24T11:03:25;16.70;42.70
17208;DHT22;8720;48.488;9.202;2023-04-24T11:05:59;16.60;43.40
17208;DHT22;8720;48.488;9.202;2023-04-24T11:08:30;16.50;43.10
17208;DHT22;8720;48.488;9.202;2023-04-24T11:11:01;16.50;43.60
17208;DHT22;8720;48.488;9.202;2023-04-24T11:14:03;16.40;43.60
17208;DHT22;8720;48.488;9.202;2023-04-24T11:16:35;16.30;42.30
17208;DHT22;8720;48.488;9.202;2023-04-24T11:19:07;16.30;44.40
17208;DHT22;8720;48.488;9.202;2023-04-24T11:21:44;16.20;44.80
17208;DHT22;8720;48.488;9.202;2023-04-24T11:24:29;16.20;44.20
17208;DHT22;8720;48.488;9.202;2023-04-24T11:27:05;16.30;42.80
17208;DHT22;8720;48.488;9.202;2023-04-24T11:29:42;16.20;44.00
17208;DHT22;8720;48.488;9.202;2023-04-24T11:32:28;16.30;43.20
17208;DHT22;8720;48.488;9.202;2023-04-24T11:34:58;16.30;43.70
17208;DHT22;8720;48.488;9.202;2023-04-24T11:37:30;16.30;44.70
17208;DHT22;8720;48.488;9.202;2023-04-24T11:40:02;16.40;44.40
17208;DHT22;8720;48.488;9.202;2023-04-24T11:42:34;16.40;44.90
17208;DHT22;8720;48.488;9.202;2023-04-24T11:45:08;16.50;44.20
17208;DHT22;8720;48.488;9.202;2023-04-24T11:47:36;16.60;43.40
17208;DHT22;8720;48.488;9.202;2023-04-24T11:50:07;16.60;44.30
17208;DHT22;8720;48.488;9.202;2023-04-24T11:52:38;16.60;43.80
17208;DHT22;8720;48.488;9.202;2023-04-24T11:55:07;16.50;43.50
17208;DHT22;8720;48.488;9.202;2023-04-24T11:57:52;16.50;43.60
17208;DHT22;8720;48.488;9.202;2023-04-24T12:00:24;16.50;43.90
17208;DHT22;8720;48.488;9.202;2023-04-24T12:03:04;16.50;43.70
17208;DHT22;8720;48.488;9.202;2023-04-24T12:05:32;16.50;42.50
17208;DHT22;8720;48.488;9.202;2023-04-24T12:08:01;16.50;43.60
17208;DHT22;8720;48.488;9.202;2023-04-24T12:10:30;16.50;43.60
17208;DHT22;8720;48.488;9.202;2023-04-24T12:12:59;16.40;43.30
17208;DHT22;8720;48.488;9.202;2023-04-24T12:15:28;16.40;43.40
17208;DHT22;8720;48.488;9.202;2023-04-24T12:17:56;16.30;43.10
17208;DHT22;8720;48.488;9.202;2023-04-24T12:20:26;16.30;43.50
17208;DHT22;8720;48.488;9.202;2023-04-24T12:22:56;16.20;43.60
17208;DHT22;8720;48.488;9.202;2023-04-24T12:25:25;16.10;43.60
17208;DHT22;8720;48.488;9.202;2023-04-24T12:27:55;16.10;44.10
17208;DHT22;8720;48.488;9.202;2023-04-24T12:30:41;16.00;44.30
17208;DHT22;8720;48.488;9.202;2023-04-24T12:33:10;15.90;44.00
17208;DHT22;8720;48.488;9.202;2023-04-24T12:35:40;15.90;44.00
17208;DHT22;8720;48.488;9.202;2023-04-24T12:38:08;15.90;43.70
17208;DHT22;8720;48.488;9.202;2023-04-24T12:40:38;15.90;43.80
17208;DHT22;8720;48.488;9.202;2023-04-24T12:43:13;15.90;43.40
17208;DHT22;8720;48.488;9.202;2023-04-24T12:45:43;15.90;42.80
17208;DHT22;8720;48.488;9.202;2023-04-24T12:48:11;16.00;43.60
17208;DHT22;8720;48.488;9.202;2023-04-24T12:50:39;16.00;43.50
17208;DHT22;8720;48.488;9.202;2023-04-24T12:53:08;16.10;43.60
17208;DHT22;8720;48.488;9.202;2023-04-24T12:55:36;16.10;43.80
17208;DHT22;8720;48.488;9.202;2023-04-24T12:58:04;16.20;44.00
17208;DHT22;8720;48.488;9.202;2023-04-24T13:00:31;16.20;43.50
17208;DHT22;8720;48.488;9.202;2023-04-24T13:03:01;16.20;43.30
17208;DHT22;8720;48.488;9.202;2023-04-24T13:05:28;16.30;43.30
17208;DHT22;8720;48.488;9.202;2023-04-24T13:07:57;16.30;43.60
17208;DHT22;8720;48.488;9.202;2023-04-24T13:10:24;16.30;43.50
17208;DHT22;8720;48.488;9.202;2023-04-24T13:12:52;16.40;43.30
17208;DHT22;8720;48.488;9.202;2023-04-24T13:15:19;16.40;43.20
17208;DHT22;8720;48.488;9.202;2023-04-24T13:17:47;16.50;43.30
17208;DHT22;8720;48.488;9.202;2023-04-24T13:20:15;16.50;43.40
17208;DHT22;8720;48.488;9.202;2023-04-24T13:22:43;16.60;43.20
17208;DHT22;8720;48.488;9.202;2023-04-24T13:25:10;16.70;43.60
17208;DHT22;8720;48.488;9.202;2023-04-24T13:27:38;16.80;43.20
17208;DHT22;8720;48.488;9.202;2023-04-24T13:30:07;16.80;42.90
17208;DHT22;8720;48.488;9.202;2023-04-24T13:32:35;16.90;42.60
17208;DHT22;8720;48.488;9.202;2023-04-24T13:35:03;16.90;42.50
17208;DHT22;8720;48.488;9.202;2023-04-24T13:37:32;16.90;42.60
17208;DHT22;8720;48.488;9.202;2023-04-24T13:40:01;16.90;42.20
17208;DHT22;8720;48.488;9.202;2023-04-24T13:42:30;16.90;42.60
17208;DHT22;8720;48.488;9.202;2023-04-24T13:44:57;16.80;42.20
17208;DHT22;8720;48.488;9.202;2023-04-24T13:47:25;16.80;42.10
17208;DHT22;8720;48.488;9.202;2023-04-24T13:49:52;16.80;42.10
17208;DHT22;8720;48.488;9.202;2023-04-24T13:52:20;16.80;42.20
17208;DHT22;8720;48.488;9.202;2023-04-24T13:54:48;16.80;42.20
17208;DHT22;8720;48.488;9.202;2023-04-24T13:57:16;16.80;41.40
17208;DHT22;8720;48.488;9.202;2023-04-24T13:59:43;16.80;42.10
17208;DHT22;8720;48.488;9.202;2023-04-24T14:02:11;16.80;41.80
17208;DHT22;8720;48.488;9.202;2023-04-24T14:04:38;16.80;42.10
17208;DHT22;8720;48.488;9.202;2023-04-24T14:07:06;16.80;42.00
17208;DHT22;8720;48.488;9.202;2023-04-24T14:09:34;16.80;41.90
17208;DHT22;8720;48.488;9.202;2023-04-24T14:12:03;16.80;41.80
17208;DHT22;8720;48.488;9.202;2023-04-24T14:14:31;16.80;41.50
17208;DHT22;8720;48.488;9.202;2023-04-24T14:16:58;16.80;41.60
17208;DHT22;8720;48.488;9.202;2023-04-24T14:19:26;16.80;41.30
17208;DHT22;8720;48.488;9.202;2023-04-24T14:21:53;16.80;41.20
17208;DHT22;8720;48.488;9.202;2023-04-24T14:24:22;16.70;41.20
17208;DHT22;8720;48.488;9.202;2023-04-24T14:26:49;16.70;41.50
17208;DHT22;8720;48.488;9.202;2023-04-24T14:29:18;16.60;41.50
17208;DHT22;8720;48.488;9.202;2023-04-24T14:31:46;16.60;41.70
17208;DHT22;8720;48.488;9.202;2023-04-24T14:34:13;16.60;42.00
17208;DHT22;8720;48.488;9.202;2023-04-24T14:36:41;16.60;41.80
17208;DHT22;8720;48.488;9.202;2023-04-24T14:39:10;16.50;41.40
17208;DHT22;8720;48.488;9.202;2023-04-24T14:41:38;16.50;41.00
17208;DHT22;8720;48.488;9.202;2023-04-24T14:44:06;16.40;41.00
17208;DHT22;8720;48.488;9.202;2023-04-24T14:46:34;16.40;41.10
17208;DHT22;8720;48.488;9.202;2023-04-24T14:49:02;16.30;40.50
17208;DHT22;8720;48.488;9.202;2023-04-24T14:51:29;16.30;40.70
17208;DHT22;8720;48.488;9.202;2023-04-24T14:53:57;16.20;41.10
17208;DHT22;8720;48.488;9.202;2023-04-24T14:56:25;16.20;41.20
17208;DHT22;8720;48.488;9.202;2023-04-24T14:58:52;16.20;41.10
17208;DHT22;8720;48.488;9.202;2023-04-24T15:01:20;16.20;41.10
17208;DHT22;8720;48.488;9.202;2023-04-24T15:03:49;16.20;41.30
17208;DHT22;8720;48.488;9.202;2023-04-24T15:06:16;16.10;41.30
17208;DHT22;8720;48.488;9.202;2023-04-24T15:08:44;16.10;41.80
17208;DHT22;8720;48.488;9.202;2023-04-24T15:11:11;16.10;41.80
17208;DHT22;8720;48.488;9.202;2023-04-24T15:13:39;16.10;41.90
17208;DHT22;8720;48.488;9.202;2023-04-24T15:16:06;16.20;42.10
17208;DHT22;8720;48.488;9.202;2023-04-24T15:18:34;16.20;42.30
17208;DHT22;8720;48.488;9.202;2023-04-24T15:21:03;16.20;42.00
17208;DHT22;8720;48.488;9.202;2023-04-24T15:23:30;16.20;41.90
17208;DHT22;8720;48.488;9.202;2023-04-24T15:25:58;16.20;41.70
17208;DHT22;8720;48.488;9.202;2023-04-24T15:28:26;16.20;42.60
17208;DHT22;8720;48.488;9.202;2023-04-24T15:30:54;16.20;42.00
17208;DHT22;8720;48.488;9.202;2023-04-24T15:33:21;16.20;42.20
17208;DHT22;8720;48.488;9.202;2023-04-24T15:35:48;16.10;42.20
17208;DHT22;8720;48.488;9.202;2023-04-24T15:38:17;16.20;42.30
17208;DHT22;8720;48.488;9.202;2023-04-24T15:40:45;16.20;42.00
17208;DHT22;8720;48.488;9.202;2023-04-24T15:43:13;16.20;42.20
17208;DHT22;8720;48.488;9.202;2023-04-24T15:45:42;16.20;41.90
17208;DHT22;8720;48.488;9.202;2023-04-24T15:48:09;16.20;41.90
17208;DHT22;8720;48.488;9.202;2023-04-24T15:50:37;16.20;41.80
17208;DHT22;8720;48.488;9.202;2023-04-24T15:53:05;16.20;41.80
17208;DHT22;8720;48.488;9.202;2023-04-24T15:55:34;16.10;41.60
17208;DHT22;8720;48.488;9.202;2023-04-24T15:58:02;16.10;41.40
17208;DHT22;8720;48.488;9.202;2023-04-24T16:00:29;16.10;41.60
17208;DHT22;8720;48.488;9.202;2023-04-24T16:02:59;16.10;41.70